sensor_id;sensor_type;location;lat;lon;timestamp;P1;P2;P0
55549;PMS7003;41397;49.972;18.944;2023-02-28T00:00:14;41;37;20
55549;PMS7003;41397;49.972;18.944;2023-02-28T00:03:21;35;33;22
55549;PMS7003;41397;49.972;18.944;2023-02-28T00:06:23;40;34;21
55549;PMS7003;41397;49.972;18.944;2023-02-28T00:09:29;39;34;22
55549;PMS7003;41397;49.972;18.944;2023-02-28T00:12:31;32;31;21
55549;PMS7003;41397;49.972;18.944;2023-02-28T00:15:33;32;30;22
55549;PMS7003;41397;49.972;18.944;2023-02-28T00:18:35;37;34;23
55549;PMS7003;41397;49.972;18.944;2023-02-28T00:21:38;34;31;18
55549;PMS7003;41397;49.972;18.944;2023-02-28T00:24:41;35;31;20
55549;PMS7003;41397;49.972;18.944;2023-02-28T00:27:42;34;31;20
55549;PMS7003;41397;49.972;18.944;2023-02-28T00:30:44;34;30;19
55549;PMS7003;41397;49.972;18.944;2023-02-28T00:33:46;28;28;20
55549;PMS7003;41397;49.972;18.944;2023-02-28T00:36:48;36;31;20
55549;PMS7003;41397;49.972;18.944;2023-02-28T00:39:49;31;29;19
55549;PMS7003;41397;49.972;18.944;2023-02-28T00:42:51;56;44;23
55549;PMS7003;41397;49.972;18.944;2023-02-28T00:45:55;49;42;24
55549;PMS7003;41397;49.972;18.944;2023-02-28T00:48:56;47;41;27
55549;PMS7003;41397;49.972;18.944;2023-02-28T00:51:58;61;50;33
55549;PMS7003;41397;49.972;18.944;2023-02-28T00:54:59;51;43;27
55549;PMS7003;41397;49.972;18.944;2023-02-28T00:58:03;47;39;25
55549;PMS7003;41397;49.972;18.944;2023-02-28T01:01:04;45;39;26
55549;PMS7003;41397;49.972;18.944;2023-02-28T01:04:06;34;32;21
55549;PMS7003;41397;49.972;18.944;2023-02-28T01:07:07;43;35;22
55549;PMS7003;41397;49.972;18.944;2023-02-28T01:10:11;37;34;22
55549;PMS7003;41397;49.972;18.944;2023-02-28T01:13:13;39;35;22
55549;PMS7003;41397;49.972;18.944;2023-02-28T01:16:15;42;34;23
55549;PMS7003;41397;49.972;18.944;2023-02-28T01:19:17;45;39;22
55549;PMS7003;41397;49.972;18.944;2023-02-28T01:22:19;38;33;20
55549;PMS7003;41397;49.972;18.944;2023-02-28T01:25:20;37;33;23
55549;PMS7003;41397;49.972;18.944;2023-02-28T01:28:22;31;30;21
55549;PMS7003;41397;49.972;18.944;2023-02-28T01:31:23;31;30;21
55549;PMS7003;41397;49.972;18.944;2023-02-28T01:34:27;35;33;22
55549;PMS7003;41397;49.972;18.944;2023-02-28T01:37:28;26;25;17
55549;PMS7003;41397;49.972;18.944;2023-02-28T01:40:30;29;28;21
55549;PMS7003;41397;49.972;18.944;2023-02-28T01:46:44;32;26;17
55549;PMS7003;41397;49.972;18.944;2023-02-28T01:49:45;32;29;21
55549;PMS7003;41397;49.972;18.944;2023-02-28T01:52:48;26;25;17
55549;PMS7003;41397;49.972;18.944;2023-02-28T01:55:51;27;27;17
55549;PMS7003;41397;49.972;18.944;2023-02-28T01:58:54;24;24;17
55549;PMS7003;41397;49.972;18.944;2023-02-28T02:02:02;26;26;17
55549;PMS7003;41397;49.972;18.944;2023-02-28T02:05:08;27;25;17
55549;PMS7003;41397;49.972;18.944;2023-02-28T02:11:23;27;27;15
55549;PMS7003;41397;49.972;18.944;2023-02-28T02:14:31;24;22;17
55549;PMS7003;41397;49.972;18.944;2023-02-28T02:27:27;28;28;18
55549;PMS7003;41397;49.972;18.944;2023-02-28T02:30:43;24;24;15
55549;PMS7003;41397;49.972;18.944;2023-02-28T02:40:21;32;30;21
55549;PMS7003;41397;49.972;18.944;2023-02-28T02:43:29;42;35;21
55549;PMS7003;41397;49.972;18.944;2023-02-28T02:46:55;29;28;21
55549;PMS7003;41397;49.972;18.944;2023-02-28T02:49:50;41;31;21
55549;PMS7003;41397;49.972;18.944;2023-02-28T02:52:56;33;31;18
55549;PMS7003;41397;49.972;18.944;2023-02-28T02:56:01;42;36;23
55549;PMS7003;41397;49.972;18.944;2023-02-28T02:59:07;41;34;22
55549;PMS7003;41397;49.972;18.944;2023-02-28T03:02:12;32;30;21
55549;PMS7003;41397;49.972;18.944;2023-02-28T03:05:19;32;29;21
55549;PMS7003;41397;49.972;18.944;2023-02-28T03:08:27;29;28;19
55549;PMS7003;41397;49.972;18.944;2023-02-28T03:11:30;33;31;21
55549;PMS7003;41397;49.972;18.944;2023-02-28T03:17:49;30;28;20
55549;PMS7003;41397;49.972;18.944;2023-02-28T03:21:02;30;28;18
55549;PMS7003;41397;49.972;18.944;2023-02-28T03:24:16;40;35;24
55549;PMS7003;41397;49.972;18.944;2023-02-28T03:27:29;42;36;23
55549;PMS7003;41397;49.972;18.944;2023-02-28T03:30:42;47;37;25
55549;PMS7003;41397;49.972;18.944;2023-02-28T03:34:03;35;32;21
55549;PMS7003;41397;49.972;18.944;2023-02-28T03:37:11;29;27;15
55549;PMS7003;41397;49.972;18.944;2023-02-28T03:40:22;40;35;24
55549;PMS7003;41397;49.972;18.944;2023-02-28T03:43:29;43;35;23
55549;PMS7003;41397;49.972;18.944;2023-02-28T03:46:36;41;36;23
55549;PMS7003;41397;49.972;18.944;2023-02-28T03:49:46;36;33;20
55549;PMS7003;41397;49.972;18.944;2023-02-28T03:52:56;40;35;24
55549;PMS7003;41397;49.972;18.944;2023-02-28T03:59:32;33;30;22
55549;PMS7003;41397;49.972;18.944;2023-02-28T04:02:31;28;28;21
55549;PMS7003;41397;49.972;18.944;2023-02-28T04:05:33;36;31;19
55549;PMS7003;41397;49.972;18.944;2023-02-28T04:08:46;40;33;19
55549;PMS7003;41397;49.972;18.944;2023-02-28T04:11:51;38;34;20
55549;PMS7003;41397;49.972;18.944;2023-02-28T04:14:53;37;33;22
55549;PMS7003;41397;49.972;18.944;2023-02-28T04:17:54;36;32;22
55549;PMS7003;41397;49.972;18.944;2023-02-28T04:20:59;38;34;23
55549;PMS7003;41397;49.972;18.944;2023-02-28T04:24:01;45;36;24
55549;PMS7003;41397;49.972;18.944;2023-02-28T04:27:03;49;40;26
55549;PMS7003;41397;49.972;18.944;2023-02-28T04:30:05;51;39;23
55549;PMS7003;41397;49.972;18.944;2023-02-28T04:33:07;52;41;25
55549;PMS7003;41397;49.972;18.944;2023-02-28T04:36:09;40;32;25
55549;PMS7003;41397;49.972;18.944;2023-02-28T04:39:10;54;44;29
55549;PMS7003;41397;49.972;18.944;2023-02-28T04:42:11;56;42;26
55549;PMS7003;41397;49.972;18.944;2023-02-28T04:45:15;34;31;19
55549;PMS7003;41397;49.972;18.944;2023-02-28T04:48:18;55;43;27
55549;PMS7003;41397;49.972;18.944;2023-02-28T04:51:19;51;41;27
55549;PMS7003;41397;49.972;18.944;2023-02-28T04:54:20;45;37;23
55549;PMS7003;41397;49.972;18.944;2023-02-28T04:57:22;52;44;28
55549;PMS7003;41397;49.972;18.944;2023-02-28T05:00:23;47;40;26
55549;PMS7003;41397;49.972;18.944;2023-02-28T05:03:25;52;43;26
55549;PMS7003;41397;49.972;18.944;2023-02-28T05:06:28;49;40;26
55549;PMS7003;41397;49.972;18.944;2023-02-28T05:09:30;45;35;23
55549;PMS7003;41397;49.972;18.944;2023-02-28T05:12:33;43;37;26
55549;PMS7003;41397;49.972;18.944;2023-02-28T05:15:35;53;44;26
55549;PMS7003;41397;49.972;18.944;2023-02-28T05:18:36;50;42;27
55549;PMS7003;41397;49.972;18.944;2023-02-28T05:21:39;45;38;23
55549;PMS7003;41397;49.972;18.944;2023-02-28T05:24:42;50;42;26
55549;PMS7003;41397;49.972;18.944;2023-02-28T05:27:44;52;41;27
55549;PMS7003;41397;49.972;18.944;2023-02-28T05:33:58;59;50;32
55549;PMS7003;41397;49.972;18.944;2023-02-28T05:37:00;52;41;27
55549;PMS7003;41397;49.972;18.944;2023-02-28T05:40:02;62;48;29
55549;PMS7003;41397;49.972;18.944;2023-02-28T05:43:09;48;40;26
55549;PMS7003;41397;49.972;18.944;2023-02-28T05:46:12;57;45;27
55549;PMS7003;41397;49.972;18.944;2023-02-28T05:49:14;52;43;27
55549;PMS7003;41397;49.972;18.944;2023-02-28T05:52:16;50;41;27
55549;PMS7003;41397;49.972;18.944;2023-02-28T05:55:18;51;44;26
55549;PMS7003;41397;49.972;18.944;2023-02-28T05:58:19;56;46;29
55549;PMS7003;41397;49.972;18.944;2023-02-28T06:01:30;56;46;28
55549;PMS7003;41397;49.972;18.944;2023-02-28T06:04:36;45;38;26
55549;PMS7003;41397;49.972;18.944;2023-02-28T06:07:38;49;41;28
55549;PMS7003;41397;49.972;18.944;2023-02-28T06:10:39;63;47;27
55549;PMS7003;41397;49.972;18.944;2023-02-28T06:13:41;56;44;29
55549;PMS7003;41397;49.972;18.944;2023-02-28T06:16:42;60;48;30
55549;PMS7003;41397;49.972;18.944;2023-02-28T06:19:45;59;48;31
55549;PMS7003;41397;49.972;18.944;2023-02-28T06:22:46;52;42;25
55549;PMS7003;41397;49.972;18.944;2023-02-28T06:25:48;55;46;28
55549;PMS7003;41397;49.972;18.944;2023-02-28T06:28:50;58;45;28
55549;PMS7003;41397;49.972;18.944;2023-02-28T06:31:53;50;42;27
55549;PMS7003;41397;49.972;18.944;2023-02-28T06:34:54;54;44;27
55549;PMS7003;41397;49.972;18.944;2023-02-28T06:37:58;51;43;29
55549;PMS7003;41397;49.972;18.944;2023-02-28T06:41:00;50;42;26
55549;PMS7003;41397;49.972;18.944;2023-02-28T06:44:02;48;39;24
55549;PMS7003;41397;49.972;18.944;2023-02-28T06:47:04;54;44;26
55549;PMS7003;41397;49.972;18.944;2023-02-28T06:50:07;48;40;26
55549;PMS7003;41397;49.972;18.944;2023-02-28T06:53:12;49;42;26
55549;PMS7003;41397;49.972;18.944;2023-02-28T06:56:14;52;40;26
55549;PMS7003;41397;49.972;18.944;2023-02-28T06:59:17;57;46;29
55549;PMS7003;41397;49.972;18.944;2023-02-28T07:02:18;50;41;27
55549;PMS7003;41397;49.972;18.944;2023-02-28T07:05:20;36;32;20
55549;PMS7003;41397;49.972;18.944;2023-02-28T07:08:22;32;29;20
55549;PMS7003;41397;49.972;18.944;2023-02-28T07:11:27;50;42;28
55549;PMS7003;41397;49.972;18.944;2023-02-28T07:14:29;42;36;24
55549;PMS7003;41397;49.972;18.944;2023-02-28T07:17:31;7;6;0
55549;PMS7003;41397;49.972;18.944;2023-02-28T07:20:32;35;31;18
55549;PMS7003;41397;49.972;18.944;2023-02-28T07:23:34;29;27;19
55549;PMS7003;41397;49.972;18.944;2023-02-28T07:26:36;44;34;24
55549;PMS7003;41397;49.972;18.944;2023-02-28T07:29:37;39;33;20
55549;PMS7003;41397;49.972;18.944;2023-02-28T07:32:39;39;34;23
55549;PMS7003;41397;49.972;18.944;2023-02-28T07:35:40;32;30;21
55549;PMS7003;41397;49.972;18.944;2023-02-28T07:38:43;43;36;22
55549;PMS7003;41397;49.972;18.944;2023-02-28T07:41:46;41;35;22
55549;PMS7003;41397;49.972;18.944;2023-02-28T07:44:48;52;44;26
55549;PMS7003;41397;49.972;18.944;2023-02-28T07:47:53;47;40;23
55549;PMS7003;41397;49.972;18.944;2023-02-28T07:50:55;40;33;22
55549;PMS7003;41397;49.972;18.944;2023-02-28T07:53:57;44;38;24
55549;PMS7003;41397;49.972;18.944;2023-02-28T07:56:59;29;27;21
55549;PMS7003;41397;49.972;18.944;2023-02-28T08:00:01;30;28;20
55549;PMS7003;41397;49.972;18.944;2023-02-28T08:03:04;41;36;22
55549;PMS7003;41397;49.972;18.944;2023-02-28T08:06:07;48;37;24
55549;PMS7003;41397;49.972;18.944;2023-02-28T08:09:14;34;31;23
55549;PMS7003;41397;49.972;18.944;2023-02-28T08:12:19;29;25;17
55549;PMS7003;41397;49.972;18.944;2023-02-28T08:15:21;34;31;19
55549;PMS7003;41397;49.972;18.944;2023-02-28T08:18:22;43;34;21
55549;PMS7003;41397;49.972;18.944;2023-02-28T08:21:24;31;28;20
55549;PMS7003;41397;49.972;18.944;2023-02-28T08:24:27;32;29;19
55549;PMS7003;41397;49.972;18.944;2023-02-28T08:27:28;38;34;18
55549;PMS7003;41397;49.972;18.944;2023-02-28T08:30:30;20;19;11
55549;PMS7003;41397;49.972;18.944;2023-02-28T08:33:31;24;24;16
55549;PMS7003;41397;49.972;18.944;2023-02-28T08:36:35;27;26;19
55549;PMS7003;41397;49.972;18.944;2023-02-28T08:39:36;37;22;14
55549;PMS7003;41397;49.972;18.944;2023-02-28T08:42:38;19;19;12
55549;PMS7003;41397;49.972;18.944;2023-02-28T08:45:39;24;24;17
55549;PMS7003;41397;49.972;18.944;2023-02-28T08:48:43;14;14;11
55549;PMS7003;41397;49.972;18.944;2023-02-28T08:51:44;17;17;13
55549;PMS7003;41397;49.972;18.944;2023-02-28T08:54:47;20;20;15
55549;PMS7003;41397;49.972;18.944;2023-02-28T08:57:48;20;20;13
55549;PMS7003;41397;49.972;18.944;2023-02-28T09:00:51;13;13;10
55549;PMS7003;41397;49.972;18.944;2023-02-28T09:03:53;25;25;14
55549;PMS7003;41397;49.972;18.944;2023-02-28T09:06:56;13;13;10
55549;PMS7003;41397;49.972;18.944;2023-02-28T09:09:57;17;17;11
55549;PMS7003;41397;49.972;18.944;2023-02-28T09:12:59;13;13;9
55549;PMS7003;41397;49.972;18.944;2023-02-28T09:16:01;14;14;11
55549;PMS7003;41397;49.972;18.944;2023-02-28T09:19:04;15;14;7
55549;PMS7003;41397;49.972;18.944;2023-02-28T09:22:06;15;15;12
55549;PMS7003;41397;49.972;18.944;2023-02-28T09:25:07;8;8;3
55549;PMS7003;41397;49.972;18.944;2023-02-28T09:28:08;13;13;10
55549;PMS7003;41397;49.972;18.944;2023-02-28T09:31:11;12;12;8
55549;PMS7003;41397;49.972;18.944;2023-02-28T09:34:14;13;13;9
55549;PMS7003;41397;49.972;18.944;2023-02-28T09:37:17;13;13;11
55549;PMS7003;41397;49.972;18.944;2023-02-28T09:40:20;18;18;12
55549;PMS7003;41397;49.972;18.944;2023-02-28T09:43:29;17;17;12
55549;PMS7003;41397;49.972;18.944;2023-02-28T09:46:40;16;16;12
55549;PMS7003;41397;49.972;18.944;2023-02-28T09:49:47;16;15;10
55549;PMS7003;41397;49.972;18.944;2023-02-28T09:52:49;17;16;12
55549;PMS7003;41397;49.972;18.944;2023-02-28T09:55:52;17;17;13
55549;PMS7003;41397;49.972;18.944;2023-02-28T09:59:00;27;26;16
55549;PMS7003;41397;49.972;18.944;2023-02-28T10:05:20;19;18;12
55549;PMS7003;41397;49.972;18.944;2023-02-28T10:08:28;15;15;9
55549;PMS7003;41397;49.972;18.944;2023-02-28T10:11:34;23;23;17
55549;PMS7003;41397;49.972;18.944;2023-02-28T10:14:38;12;11;10
55549;PMS7003;41397;49.972;18.944;2023-02-28T10:17:45;19;19;15
55549;PMS7003;41397;49.972;18.944;2023-02-28T10:20:49;17;17;9
55549;PMS7003;41397;49.972;18.944;2023-02-28T10:23:56;19;19;13
55549;PMS7003;41397;49.972;18.944;2023-02-28T10:30:17;19;19;13
55549;PMS7003;41397;49.972;18.944;2023-02-28T10:33:21;20;20;10
55549;PMS7003;41397;49.972;18.944;2023-02-28T10:36:31;18;18;13
55549;PMS7003;41397;49.972;18.944;2023-02-28T10:42:41;18;18;15
55549;PMS7003;41397;49.972;18.944;2023-02-28T10:49:05;16;16;13
55549;PMS7003;41397;49.972;18.944;2023-02-28T10:52:12;11;10;7
55549;PMS7003;41397;49.972;18.944;2023-02-28T10:58:27;20;20;12
55549;PMS7003;41397;49.972;18.944;2023-02-28T11:04:42;18;18;15
55549;PMS7003;41397;49.972;18.944;2023-02-28T11:07:52;11;11;11
55549;PMS7003;41397;49.972;18.944;2023-02-28T11:10:56;17;17;14
55549;PMS7003;41397;49.972;18.944;2023-02-28T11:14:04;13;13;8
55549;PMS7003;41397;49.972;18.944;2023-02-28T11:17:19;18;18;13
55549;PMS7003;41397;49.972;18.944;2023-02-28T11:20:23;24;23;14
55549;PMS7003;41397;49.972;18.944;2023-02-28T11:23:29;24;24;14
55549;PMS7003;41397;49.972;18.944;2023-02-28T11:29:46;18;18;13
55549;PMS7003;41397;49.972;18.944;2023-02-28T11:32:48;20;20;12
55549;PMS7003;41397;49.972;18.944;2023-02-28T11:35:51;16;16;11
55549;PMS7003;41397;49.972;18.944;2023-02-28T11:38:58;21;21;16
55549;PMS7003;41397;49.972;18.944;2023-02-28T12:04:59;18;18;13
55549;PMS7003;41397;49.972;18.944;2023-02-28T12:11:27;25;24;18
55549;PMS7003;41397;49.972;18.944;2023-02-28T12:18:01;19;17;12
55549;PMS7003;41397;49.972;18.944;2023-02-28T12:27:37;20;19;12
55549;PMS7003;41397;49.972;18.944;2023-02-28T12:30:53;15;15;12
55549;PMS7003;41397;49.972;18.944;2023-02-28T12:34:07;22;22;11
55549;PMS7003;41397;49.972;18.944;2023-02-28T12:37:17;14;14;9
55549;PMS7003;41397;49.972;18.944;2023-02-28T12:43:42;14;14;10
55549;PMS7003;41397;49.972;18.944;2023-02-28T12:46:54;13;13;9
55549;PMS7003;41397;49.972;18.944;2023-02-28T12:50:02;14;14;9
55549;PMS7003;41397;49.972;18.944;2023-02-28T12:53:06;12;12;8
55549;PMS7003;41397;49.972;18.944;2023-02-28T13:02:56;19;19;14
55549;PMS7003;41397;49.972;18.944;2023-02-28T13:09:19;18;18;11
55549;PMS7003;41397;49.972;18.944;2023-02-28T13:12:22;12;12;9
55549;PMS7003;41397;49.972;18.944;2023-02-28T13:15:27;14;13;9
55549;PMS7003;41397;49.972;18.944;2023-02-28T13:21:44;16;16;12
55549;PMS7003;41397;49.972;18.944;2023-02-28T13:24:50;15;15;13
55549;PMS7003;41397;49.972;18.944;2023-02-28T13:27:59;18;18;12
55549;PMS7003;41397;49.972;18.944;2023-02-28T13:31:05;7;5;4
55549;PMS7003;41397;49.972;18.944;2023-02-28T13:40:32;18;18;11
55549;PMS7003;41397;49.972;18.944;2023-02-28T13:56:44;16;16;11
55549;PMS7003;41397;49.972;18.944;2023-02-28T14:00:06;18;18;14
55549;PMS7003;41397;49.972;18.944;2023-02-28T14:03:10;14;14;11
55549;PMS7003;41397;49.972;18.944;2023-02-28T14:06:33;14;14;10
55549;PMS7003;41397;49.972;18.944;2023-02-28T14:09:37;21;18;12
55549;PMS7003;41397;49.972;18.944;2023-02-28T14:15:56;12;12;9
55549;PMS7003;41397;49.972;18.944;2023-02-28T14:41:57;19;19;11
55549;PMS7003;41397;49.972;18.944;2023-02-28T14:45:05;18;18;12
55549;PMS7003;41397;49.972;18.944;2023-02-28T14:48:09;14;14;13
55549;PMS7003;41397;49.972;18.944;2023-02-28T14:51:11;15;15;12
55549;PMS7003;41397;49.972;18.944;2023-02-28T14:54:19;20;20;14
55549;PMS7003;41397;49.972;18.944;2023-02-28T14:57:28;24;21;14
55549;PMS7003;41397;49.972;18.944;2023-02-28T15:00:32;16;16;11
55549;PMS7003;41397;49.972;18.944;2023-02-28T15:03:40;24;24;17
55549;PMS7003;41397;49.972;18.944;2023-02-28T15:06:45;13;13;9
55549;PMS7003;41397;49.972;18.944;2023-02-28T15:09:46;18;17;13
55549;PMS7003;41397;49.972;18.944;2023-02-28T15:12:52;19;19;11
55549;PMS7003;41397;49.972;18.944;2023-02-28T15:16:03;18;16;11
55549;PMS7003;41397;49.972;18.944;2023-02-28T15:22:22;15;14;9
55549;PMS7003;41397;49.972;18.944;2023-02-28T15:25:30;16;16;8
55549;PMS7003;41397;49.972;18.944;2023-02-28T15:28:32;23;23;14
55549;PMS7003;41397;49.972;18.944;2023-02-28T15:31:35;24;24;13
55549;PMS7003;41397;49.972;18.944;2023-02-28T15:34:43;18;18;12
55549;PMS7003;41397;49.972;18.944;2023-02-28T15:37:46;28;25;18
55549;PMS7003;41397;49.972;18.944;2023-02-28T15:40:53;15;14;11
55549;PMS7003;41397;49.972;18.944;2023-02-28T15:47:19;22;21;14
55549;PMS7003;41397;49.972;18.944;2023-02-28T15:50:23;15;15;11
55549;PMS7003;41397;49.972;18.944;2023-02-28T15:53:27;22;22;15
55549;PMS7003;41397;49.972;18.944;2023-02-28T15:56:33;23;23;15
55549;PMS7003;41397;49.972;18.944;2023-02-28T15:59:42;24;24;17
55549;PMS7003;41397;49.972;18.944;2023-02-28T16:02:51;20;19;12
55549;PMS7003;41397;49.972;18.944;2023-02-28T16:09:14;28;26;18
55549;PMS7003;41397;49.972;18.944;2023-02-28T16:12:17;26;24;17
55549;PMS7003;41397;49.972;18.944;2023-02-28T16:15:20;22;22;15
55549;PMS7003;41397;49.972;18.944;2023-02-28T16:18:25;24;23;18
55549;PMS7003;41397;49.972;18.944;2023-02-28T16:21:26;22;22;16
55549;PMS7003;41397;49.972;18.944;2023-02-28T16:24:27;39;32;19
55549;PMS7003;41397;49.972;18.944;2023-02-28T16:27:32;24;23;14
55549;PMS7003;41397;49.972;18.944;2023-02-28T16:30:38;21;21;13
55549;PMS7003;41397;49.972;18.944;2023-02-28T16:33:40;24;23;17
55549;PMS7003;41397;49.972;18.944;2023-02-28T16:36:46;32;30;22
55549;PMS7003;41397;49.972;18.944;2023-02-28T16:42:12;28;27;17
55549;PMS7003;41397;49.972;18.944;2023-02-28T16:45:20;32;29;19
55549;PMS7003;41397;49.972;18.944;2023-02-28T16:48:24;36;33;20
55549;PMS7003;41397;49.972;18.944;2023-02-28T16:51:26;62;49;27
55549;PMS7003;41397;49.972;18.944;2023-02-28T16:54:34;48;40;25
55549;PMS7003;41397;49.972;18.944;2023-02-28T16:57:35;46;40;26
55549;PMS7003;41397;49.972;18.944;2023-02-28T17:00:37;44;37;22
55549;PMS7003;41397;49.972;18.944;2023-02-28T17:03:39;39;35;25
55549;PMS7003;41397;49.972;18.944;2023-02-28T17:06:42;48;39;22
55549;PMS7003;41397;49.972;18.944;2023-02-28T17:09:44;52;42;25
55549;PMS7003;41397;49.972;18.944;2023-02-28T17:12:46;52;42;25
55549;PMS7003;41397;49.972;18.944;2023-02-28T17:15:49;55;43;29
55549;PMS7003;41397;49.972;18.944;2023-02-28T17:18:50;43;38;25
55549;PMS7003;41397;49.972;18.944;2023-02-28T17:21:53;53;44;27
55549;PMS7003;41397;49.972;18.944;2023-02-28T17:24:55;53;44;27
55549;PMS7003;41397;49.972;18.944;2023-02-28T17:27:59;53;39;27
55549;PMS7003;41397;49.972;18.944;2023-02-28T17:31:00;56;43;30
55549;PMS7003;41397;49.972;18.944;2023-02-28T17:34:02;63;49;31
55549;PMS7003;41397;49.972;18.944;2023-02-28T17:37:03;59;49;31
55549;PMS7003;41397;49.972;18.944;2023-02-28T17:40:06;51;43;28
55549;PMS7003;41397;49.972;18.944;2023-02-28T17:43:13;57;46;32
55549;PMS7003;41397;49.972;18.944;2023-02-28T17:46:20;60;49;32
55549;PMS7003;41397;49.972;18.944;2023-02-28T17:49:23;57;44;27
55549;PMS7003;41397;49.972;18.944;2023-02-28T17:52:25;49;42;28
55549;PMS7003;41397;49.972;18.944;2023-02-28T17:55:26;50;43;27
55549;PMS7003;41397;49.972;18.944;2023-02-28T17:58:28;43;38;28
55549;PMS7003;41397;49.972;18.944;2023-02-28T18:01:31;60;48;31
55549;PMS7003;41397;49.972;18.944;2023-02-28T18:07:43;65;54;33
55549;PMS7003;41397;49.972;18.944;2023-02-28T18:10:46;59;49;32
55549;PMS7003;41397;49.972;18.944;2023-02-28T18:13:49;61;49;33
55549;PMS7003;41397;49.972;18.944;2023-02-28T18:16:53;69;49;30
55549;PMS7003;41397;49.972;18.944;2023-02-28T18:19:55;62;50;31
55549;PMS7003;41397;49.972;18.944;2023-02-28T18:22:59;56;46;28
55549;PMS7003;41397;49.972;18.944;2023-02-28T18:26:00;56;47;30
55549;PMS7003;41397;49.972;18.944;2023-02-28T18:29:02;59;47;26
55549;PMS7003;41397;49.972;18.944;2023-02-28T18:32:04;54;45;28
55549;PMS7003;41397;49.972;18.944;2023-02-28T18:35:06;38;33;15
55549;PMS7003;41397;49.972;18.944;2023-02-28T18:38:10;56;47;31
55549;PMS7003;41397;49.972;18.944;2023-02-28T18:41:16;54;44;28
55549;PMS7003;41397;49.972;18.944;2023-02-28T18:44:21;57;42;28
55549;PMS7003;41397;49.972;18.944;2023-02-28T18:47:22;62;50;30
55549;PMS7003;41397;49.972;18.944;2023-02-28T18:50:32;51;43;25
55549;PMS7003;41397;49.972;18.944;2023-02-28T18:54:06;57;46;30
55549;PMS7003;41397;49.972;18.944;2023-02-28T19:00:36;57;45;27
55549;PMS7003;41397;49.972;18.944;2023-02-28T19:07:15;50;41;26
55549;PMS7003;41397;49.972;18.944;2023-02-28T19:10:22;49;42;27
55549;PMS7003;41397;49.972;18.944;2023-02-28T19:13:24;51;44;27
55549;PMS7003;41397;49.972;18.944;2023-02-28T19:16:28;56;47;29
55549;PMS7003;41397;49.972;18.944;2023-02-28T19:22:46;64;53;33
55549;PMS7003;41397;49.972;18.944;2023-02-28T19:25:48;72;61;42
55549;PMS7003;41397;49.972;18.944;2023-02-28T19:28:49;72;60;34
55549;PMS7003;41397;49.972;18.944;2023-02-28T19:31:51;70;58;35
55549;PMS7003;41397;49.972;18.944;2023-02-28T19:34:53;82;70;42
55549;PMS7003;41397;49.972;18.944;2023-02-28T19:37:56;80;70;38
55549;PMS7003;41397;49.972;18.944;2023-02-28T19:41:03;75;66;40
55549;PMS7003;41397;49.972;18.944;2023-02-28T19:47:18;89;77;42
55549;PMS7003;41397;49.972;18.944;2023-02-28T19:50:20;91;83;45
55549;PMS7003;41397;49.972;18.944;2023-02-28T19:53:23;81;74;45
55549;PMS7003;41397;49.972;18.944;2023-02-28T19:56:25;83;72;41
55549;PMS7003;41397;49.972;18.944;2023-02-28T19:59:27;81;71;38
55549;PMS7003;41397;49.972;18.944;2023-02-28T20:02:29;73;62;40
55549;PMS7003;41397;49.972;18.944;2023-02-28T20:05:31;76;67;35
55549;PMS7003;41397;49.972;18.944;2023-02-28T20:08:33;75;69;36
55549;PMS7003;41397;49.972;18.944;2023-02-28T20:11:34;80;72;38
55549;PMS7003;41397;49.972;18.944;2023-02-28T20:14:36;87;79;41
55549;PMS7003;41397;49.972;18.944;2023-02-28T20:17:39;79;76;46
55549;PMS7003;41397;49.972;18.944;2023-02-28T20:20:42;80;72;43
55549;PMS7003;41397;49.972;18.944;2023-02-28T20:23:44;75;70;42
55549;PMS7003;41397;49.972;18.944;2023-02-28T20:26:48;81;77;43
55549;PMS7003;41397;49.972;18.944;2023-02-28T20:29:49;92;87;49
55549;PMS7003;41397;49.972;18.944;2023-02-28T20:32:54;104;92;54
55549;PMS7003;41397;49.972;18.944;2023-02-28T20:35:58;108;100;50
55549;PMS7003;41397;49.972;18.944;2023-02-28T20:39:01;112;96;53
55549;PMS7003;41397;49.972;18.944;2023-02-28T20:42:03;109;93;51
55549;PMS7003;41397;49.972;18.944;2023-02-28T20:45:05;113;94;51
55549;PMS7003;41397;49.972;18.944;2023-02-28T20:48:07;93;78;41
55549;PMS7003;41397;49.972;18.944;2023-02-28T20:51:09;82;78;42
55549;PMS7003;41397;49.972;18.944;2023-02-28T20:54:11;82;72;43
55549;PMS7003;41397;49.972;18.944;2023-02-28T20:57:13;79;71;46
55549;PMS7003;41397;49.972;18.944;2023-02-28T21:00:15;82;75;40
55549;PMS7003;41397;49.972;18.944;2023-02-28T21:03:20;71;62;38
55549;PMS7003;41397;49.972;18.944;2023-02-28T21:06:23;101;77;41
55549;PMS7003;41397;49.972;18.944;2023-02-28T21:09:31;76;67;40
55549;PMS7003;41397;49.972;18.944;2023-02-28T21:12:33;89;69;39
55549;PMS7003;41397;49.972;18.944;2023-02-28T21:15:37;87;68;39
55549;PMS7003;41397;49.972;18.944;2023-02-28T21:18:39;79;64;38
55549;PMS7003;41397;49.972;18.944;2023-02-28T21:21:41;81;72;42
55549;PMS7003;41397;49.972;18.944;2023-02-28T21:24:44;86;74;39
55549;PMS7003;41397;49.972;18.944;2023-02-28T21:27:46;74;63;35
55549;PMS7003;41397;49.972;18.944;2023-02-28T21:30:48;67;58;32
55549;PMS7003;41397;49.972;18.944;2023-02-28T21:33:51;83;67;35
55549;PMS7003;41397;49.972;18.944;2023-02-28T21:36:54;74;60;33
55549;PMS7003;41397;49.972;18.944;2023-02-28T21:39:55;78;66;38
55549;PMS7003;41397;49.972;18.944;2023-02-28T21:42:57;75;71;39
55549;PMS7003;41397;49.972;18.944;2023-02-28T21:46:02;87;81;48
55549;PMS7003;41397;49.972;18.944;2023-02-28T21:49:05;83;74;39
55549;PMS7003;41397;49.972;18.944;2023-02-28T21:52:07;88;77;40
55549;PMS7003;41397;49.972;18.944;2023-02-28T21:55:08;76;70;39
55549;PMS7003;41397;49.972;18.944;2023-02-28T21:58:10;88;74;44
55549;PMS7003;41397;49.972;18.944;2023-02-28T22:01:18;79;72;41
55549;PMS7003;41397;49.972;18.944;2023-02-28T22:04:21;71;65;35
55549;PMS7003;41397;49.972;18.944;2023-02-28T22:07:23;76;68;36
55549;PMS7003;41397;49.972;18.944;2023-02-28T22:10:25;72;67;40
55549;PMS7003;41397;49.972;18.944;2023-02-28T22:13:26;85;74;42
55549;PMS7003;41397;49.972;18.944;2023-02-28T22:16:28;66;58;38
55549;PMS7003;41397;49.972;18.944;2023-02-28T22:19:30;79;73;42
55549;PMS7003;41397;49.972;18.944;2023-02-28T22:22:32;85;69;38
55549;PMS7003;41397;49.972;18.944;2023-02-28T22:25:35;74;65;35